Time;durP1;ratioP1;P1;durP2;ratioP2;P2;SDS_P1;SDS_P2;PMS_P1;PMS_P2;Temp;Humidity;BMP_temperature;BMP_pressure;BME280_temperature;BME280_humidity;BME280_pressure;Samples;Min_cycle;Max_cycle;Signal;HPM_P1;HPM_P2
2021/10/09 00:01:26;;;;;;;11.82;10.40;;;13.30;99.90;;;;;;5075786;28;20027;-81
2021/10/09 00:03:52;;;;;;;11.23;10.05;;;13.30;99.90;;;;;;5072066;28;22832;-81
2021/10/09 00:06:18;;;;;;;11.77;10.45;;;13.30;99.90;;;;;;5077002;28;20119;-82
2021/10/09 00:08:44;;;;;;;11.38;10.18;;;13.40;99.90;;;;;;5075272;28;20028;-81
2021/10/09 00:11:22;;;;;;;11.32;10.13;;;13.30;99.90;;;;;;5075680;28;20103;-81
2021/10/09 00:13:48;;;;;;;13.60;10.50;;;13.40;99.90;;;;;;5074212;28;20407;-82
2021/10/09 00:16:15;;;;;;;10.65;9.65;;;13.30;99.90;;;;;;5072357;28;20028;-81
2021/10/09 00:18:41;;;;;;;11.55;10.30;;;13.30;99.90;;;;;;5073901;28;20021;-81
2021/10/09 00:21:06;;;;;;;11.75;9.98;;;13.30;99.90;;;;;;5076452;28;20039;-81
2021/10/09 00:23:32;;;;;;;11.05;9.38;;;13.20;99.90;;;;;;5075104;28;20389;-81
2021/10/09 00:25:58;;;;;;;10.70;9.70;;;13.20;99.90;;;;;;5075270;28;20515;-81
2021/10/09 00:28:24;;;;;;;11.70;9.60;;;13.20;99.90;;;;;;5074566;28;20032;-81
2021/10/09 00:30:50;;;;;;;10.82;9.73;;;13.20;99.90;;;;;;5071725;28;20037;-81
2021/10/09 00:33:15;;;;;;;11.25;9.88;;;13.30;99.90;;;;;;5077511;28;20028;-81
2021/10/09 00:35:41;;;;;;;11.10;9.88;;;13.30;99.90;;;;;;5074508;28;20021;-81
2021/10/09 00:38:06;;;;;;;11.73;9.88;;;13.30;99.90;;;;;;5074929;28;20412;-81
2021/10/09 00:40:32;;;;;;;12.52;10.55;;;13.20;99.90;;;;;;5074924;28;20046;-81
2021/10/09 00:42:58;;;;;;;11.38;10.10;;;13.30;99.90;;;;;;5069753;28;20028;-81
2021/10/09 00:45:23;;;;;;;12.25;10.45;;;13.20;99.90;;;;;;5076575;28;20515;-81
2021/10/09 00:47:52;;;;;;;12.10;10.88;;;13.20;99.90;;;;;;5074703;28;20087;-81
2021/10/09 00:50:18;;;;;;;12.60;11.30;;;13.20;99.90;;;;;;5074286;28;20028;-81
2021/10/09 00:52:45;;;;;;;12.63;11.32;;;13.10;99.90;;;;;;5073368;28;20030;-81
2021/10/09 00:55:12;;;;;;;13.20;10.85;;;13.20;99.90;;;;;;5070376;28;20017;-81
2021/10/09 00:57:40;;;;;;;13.13;10.88;;;13.30;99.90;;;;;;5074072;28;20032;-81
2021/10/09 01:00:07;;;;;;;12.80;10.50;;;13.20;99.90;;;;;;5076127;28;20107;-81
2021/10/09 01:02:36;;;;;;;13.25;11.70;;;13.20;99.90;;;;;;5074891;28;20028;-81
2021/10/09 01:05:02;;;;;;;14.63;11.70;;;13.20;99.90;;;;;;5074110;28;20393;-82
2021/10/09 01:07:28;;;;;;;13.27;11.05;;;13.30;99.90;;;;;;5073845;28;20043;-81
2021/10/09 01:09:53;;;;;;;12.75;10.43;;;13.30;99.90;;;;;;5071007;28;20400;-81
2021/10/09 01:12:19;;;;;;;13.82;11.57;;;13.20;99.90;;;;;;5076381;28;20397;-81
2021/10/09 01:14:45;;;;;;;12.80;11.50;;;13.20;99.90;;;;;;5074673;28;20464;-81
2021/10/09 01:17:14;;;;;;;12.38;11.02;;;13.20;99.90;;;;;;5074392;28;20036;-81
2021/10/09 01:19:41;;;;;;;13.60;11.00;;;13.20;99.90;;;;;;5073081;28;20028;-81
2021/10/09 01:22:06;;;;;;;12.95;11.65;;;13.10;99.90;;;;;;5070471;28;20044;-81
2021/10/09 01:24:32;;;;;;;13.25;11.75;;;13.20;99.90;;;;;;5075152;28;20150;-81
2021/10/09 01:26:58;;;;;;;13.38;12.02;;;13.20;99.90;;;;;;5075158;28;20036;-81
2021/10/09 01:29:24;;;;;;;13.07;11.70;;;13.10;99.90;;;;;;5074174;28;20028;-81
2021/10/09 01:31:49;;;;;;;14.10;12.43;;;13.10;99.90;;;;;;5072808;28;20028;-81
2021/10/09 01:34:24;;;;;;;14.25;12.23;;;13.20;99.90;;;;;;5070093;28;20025;-81
2021/10/09 01:36:49;;;;;;;14.43;11.48;;;12.90;99.90;;;;;;5070883;28;20074;-81
2021/10/09 01:39:16;;;;;;;13.32;11.75;;;13.00;99.90;;;;;;5076056;28;20105;-81
2021/10/09 01:41:49;;;;;;;13.75;11.43;;;13.10;99.90;;;;;;5074375;28;20039;-81
2021/10/09 01:44:16;;;;;;;13.52;11.57;;;13.20;99.90;;;;;;5073988;28;20078;-81
2021/10/09 01:46:42;;;;;;;14.45;11.35;;;13.10;99.90;;;;;;5072278;28;20035;-81
2021/10/09 01:49:09;;;;;;;12.82;11.45;;;13.10;99.90;;;;;;5070666;28;20419;-82
2021/10/09 01:51:35;;;;;;;16.10;11.77;;;13.10;99.90;;;;;;5074212;28;20031;-81
2021/10/09 01:54:00;;;;;;;12.60;11.30;;;13.10;99.90;;;;;;5075109;28;20099;-81
2021/10/09 01:56:26;;;;;;;13.63;12.13;;;13.10;99.90;;;;;;5073919;28;20031;-81
2021/10/09 01:58:52;;;;;;;16.08;12.85;;;13.10;99.90;;;;;;5073867;28;20038;-81
2021/10/09 02:01:18;;;;;;;28.27;17.77;;;13.00;99.90;;;;;;5072033;28;20508;-81
2021/10/09 02:03:44;;;;;;;16.60;13.52;;;13.00;99.90;;;;;;5071537;28;20505;-81
2021/10/09 02:06:10;;;;;;;14.98;12.35;;;12.90;99.90;;;;;;5073579;28;20036;-81
2021/10/09 02:08:36;;;;;;;14.75;12.82;;;12.90;99.90;;;;;;5073624;28;20028;-82
2021/10/09 02:11:05;;;;;;;15.20;13.48;;;12.90;99.90;;;;;;5072745;28;20396;-82
2021/10/09 02:26:23;;;;;;;13.63;11.70;;;13.00;99.90;;;;;;5073481;28;20087;-81
2021/10/09 02:28:48;;;;;;;13.85;12.40;;;13.20;99.90;;;;;;5073829;28;20024;-81
2021/10/09 02:31:14;;;;;;;14.45;12.32;;;13.50;99.90;;;;;;5073944;28;20040;-81
2021/10/09 02:33:39;;;;;;;15.43;12.65;;;13.00;99.90;;;;;;5076031;28;20031;-81
2021/10/09 02:36:05;;;;;;;13.77;12.38;;;13.00;99.90;;;;;;5078732;28;20086;-81
2021/10/09 02:38:31;;;;;;;13.43;11.75;;;13.00;99.90;;;;;;5077688;28;20167;-81
2021/10/09 02:40:56;;;;;;;13.65;12.18;;;13.10;99.90;;;;;;5077745;28;20039;-81
2021/10/09 02:43:23;;;;;;;14.93;12.30;;;13.10;99.90;;;;;;5075928;28;20031;-82
2021/10/09 02:45:48;;;;;;;14.00;12.40;;;13.00;99.90;;;;;;5073478;28;20036;-81
2021/10/09 02:48:16;;;;;;;15.30;12.63;;;12.90;99.90;;;;;;5079463;28;20622;-81
2021/10/09 02:50:43;;;;;;;15.00;12.63;;;12.90;99.90;;;;;;5075706;28;20032;-81
2021/10/09 02:53:09;;;;;;;13.80;11.63;;;13.00;99.90;;;;;;5075897;28;20115;-81
2021/10/09 02:55:34;;;;;;;16.50;12.90;;;13.20;99.90;;;;;;5077164;28;20150;-81
2021/10/09 02:58:00;;;;;;;14.27;12.82;;;12.90;99.90;;;;;;5072634;28;20033;-81
2021/10/09 03:00:26;;;;;;;13.55;11.48;;;13.00;99.90;;;;;;5086016;28;20024;-81
2021/10/09 03:02:51;;;;;;;15.90;11.95;;;13.00;99.90;;;;;;5076745;28;20203;-81
2021/10/09 03:05:18;;;;;;;12.90;11.27;;;13.00;99.90;;;;;;5077242;28;20119;-81
2021/10/09 03:07:44;;;;;;;14.07;12.57;;;13.30;99.90;;;;;;5077044;28;20502;-81
2021/10/09 03:10:10;;;;;;;14.95;12.48;;;13.00;99.90;;;;;;5073602;28;20024;-81
2021/10/09 03:12:37;;;;;;;13.88;12.38;;;12.90;99.90;;;;;;5076959;28;20035;-81
2021/10/09 03:15:04;;;;;;;14.93;12.35;;;13.20;99.90;;;;;;5077513;28;20024;-81
2021/10/09 03:17:30;;;;;;;14.60;13.00;;;13.00;99.90;;;;;;5076725;28;20067;-81
2021/10/09 03:19:56;;;;;;;14.27;12.48;;;13.00;99.90;;;;;;5076773;28;20048;-81
2021/10/09 03:22:22;;;;;;;14.32;12.93;;;13.00;99.90;;;;;;5075355;28;20126;-81
2021/10/09 03:24:47;;;;;;;15.35;13.35;;;13.10;99.90;;;;;;5073749;28;20035;-81
2021/10/09 03:27:13;;;;;;;15.90;12.70;;;13.30;99.90;;;;;;5078635;28;20048;-81
2021/10/09 03:29:38;;;;;;;16.92;13.60;;;13.00;99.90;;;;;;5074888;28;20033;-81
2021/10/09 03:32:04;;;;;;;16.45;14.05;;;13.00;99.90;;;;;;5074755;28;20028;-81
2021/10/09 03:34:33;;;;;;;15.00;13.45;;;13.00;99.90;;;;;;5076155;28;20028;-81
2021/10/09 03:37:08;;;;;;;16.45;13.85;;;13.00;99.90;;;;;;5055942;28;20473;-81
2021/10/09 03:39:36;;;;;;;16.20;13.43;;;13.10;99.90;;;;;;5086496;28;20395;-81
2021/10/09 03:42:13;;;;;;;18.75;14.60;;;13.50;99.90;;;;;;5076040;28;20063;-81
2021/10/09 03:44:56;;;;;;;15.02;13.43;;;13.10;99.90;;;;;;5075555;28;20386;-81
2021/10/09 03:52:52;;;;;;;16.55;13.73;;;12.90;99.90;;;;;;4990293;28;20042;-81
2021/10/09 03:55:19;;;;;;;15.75;14.07;;;13.00;99.90;;;;;;5006617;28;20042;-82
2021/10/09 03:57:45;;;;;;;16.65;14.15;;;13.00;99.90;;;;;;4989744;28;20037;-81
2021/10/09 04:00:13;;;;;;;16.25;14.10;;;13.00;99.90;;;;;;4991574;28;20081;-81
2021/10/09 04:02:39;;;;;;;16.52;14.82;;;13.10;99.90;;;;;;4990377;28;20034;-81
2021/10/09 04:05:05;;;;;;;15.07;13.57;;;13.10;99.90;;;;;;4989703;28;20077;-81
2021/10/09 04:07:31;;;;;;;16.15;14.45;;;13.10;99.90;;;;;;4988354;28;20044;-81
2021/10/09 04:09:57;;;;;;;15.90;14.05;;;13.10;99.90;;;;;;4988476;28;20484;-82
2021/10/09 04:12:23;;;;;;;16.95;15.15;;;13.10;99.90;;;;;;4991116;28;20065;-81
2021/10/09 04:14:48;;;;;;;17.70;14.43;;;13.10;99.90;;;;;;4989411;28;20030;-81
2021/10/09 04:17:14;;;;;;;18.73;15.18;;;13.20;99.90;;;;;;4989706;28;20092;-81
2021/10/09 04:19:40;;;;;;;18.30;15.60;;;13.10;99.90;;;;;;4989483;28;20038;-82
2021/10/09 04:22:05;;;;;;;19.90;16.88;;;13.10;99.90;;;;;;4989522;28;20058;-81
2021/10/09 04:24:31;;;;;;;19.02;16.40;;;13.20;99.90;;;;;;4991685;28;20132;-81
2021/10/09 04:26:57;;;;;;;21.83;17.00;;;13.40;99.90;;;;;;4989617;28;20041;-81
2021/10/09 04:29:23;;;;;;;21.98;16.83;;;13.10;99.90;;;;;;5007548;28;20045;-82
2021/10/09 04:31:50;;;;;;;19.88;16.40;;;13.10;99.90;;;;;;5066191;28;20028;-81
2021/10/09 04:34:16;;;;;;;19.92;16.88;;;13.10;99.90;;;;;;5072983;28;20025;-81
2021/10/09 04:36:41;;;;;;;25.70;16.23;;;13.20;99.90;;;;;;5073959;28;20374;-82
2021/10/09 04:39:07;;;;;;;21.98;16.48;;;13.00;99.90;;;;;;5076450;28;20504;-81
2021/10/09 04:41:33;;;;;;;19.13;16.13;;;13.00;99.90;;;;;;5074681;28;20488;-81
2021/10/09 04:43:59;;;;;;;20.42;17.35;;;13.00;99.90;;;;;;5074612;28;20029;-81
2021/10/09 04:46:24;;;;;;;20.10;15.68;;;13.00;99.90;;;;;;5072945;28;20081;-81
2021/10/09 04:48:50;;;;;;;18.25;15.77;;;13.00;99.90;;;;;;5071607;28;20122;-81
2021/10/09 04:51:16;;;;;;;21.20;16.85;;;13.00;99.90;;;;;;5075632;28;20024;-81
2021/10/09 04:53:41;;;;;;;20.85;17.08;;;13.00;99.90;;;;;;5074689;28;20021;-81
2021/10/09 04:56:07;;;;;;;19.40;16.90;;;13.00;99.90;;;;;;5074387;28;20024;-81
2021/10/09 04:58:32;;;;;;;20.88;16.85;;;12.90;99.90;;;;;;5074884;28;20111;-81
2021/10/09 05:00:58;;;;;;;22.85;17.52;;;12.90;99.90;;;;;;5070768;28;20029;-82
2021/10/09 05:03:24;;;;;;;21.40;16.92;;;12.90;99.90;;;;;;5076774;28;20067;-81
2021/10/09 05:05:49;;;;;;;23.98;17.02;;;13.30;99.90;;;;;;5074939;28;20032;-81
2021/10/09 05:08:15;;;;;;;18.75;16.80;;;12.90;99.90;;;;;;5071471;28;20029;-81
2021/10/09 05:10:43;;;;;;;21.50;17.08;;;12.90;99.90;;;;;;5075013;28;20028;-81
2021/10/09 05:13:08;;;;;;;21.27;17.98;;;12.80;99.90;;;;;;5071269;28;20028;-82
2021/10/09 05:15:38;;;;;;;21.80;17.02;;;12.80;99.90;;;;;;5075237;28;20024;-81
2021/10/09 05:18:04;;;;;;;21.92;17.63;;;12.80;99.90;;;;;;5076116;28;20080;-82
2021/10/09 05:20:29;;;;;;;21.75;18.67;;;12.80;99.90;;;;;;5074899;28;20020;-81
2021/10/09 05:22:55;;;;;;;22.67;18.95;;;12.90;99.90;;;;;;5074323;28;20048;-81
2021/10/09 05:25:21;;;;;;;23.52;18.48;;;13.40;99.90;;;;;;5070098;28;20028;-81
2021/10/09 05:27:55;;;;;;;22.55;18.98;;;12.90;99.90;;;;;;5072010;28;20028;-81
2021/10/09 05:30:20;;;;;;;23.02;18.92;;;12.90;99.90;;;;;;5075677;28;20066;-81
2021/10/09 05:32:59;;;;;;;26.75;22.10;;;12.90;99.90;;;;;;5074258;28;20416;-81
2021/10/09 05:35:26;;;;;;;27.83;21.60;;;12.70;99.90;;;;;;5075239;28;20027;-82
2021/10/09 05:37:51;;;;;;;27.23;20.65;;;12.70;99.90;;;;;;5074330;28;20039;-81
2021/10/09 05:40:17;;;;;;;25.95;20.70;;;12.60;99.90;;;;;;5071640;28;20024;-81
2021/10/09 05:42:43;;;;;;;28.35;22.30;;;12.50;99.90;;;;;;5072736;28;20082;-82
2021/10/09 05:45:08;;;;;;;25.83;20.67;;;12.60;99.90;;;;;;5075310;28;20068;-81
2021/10/09 05:47:34;;;;;;;28.08;23.08;;;12.60;99.90;;;;;;5073925;28;20040;-86
2021/10/09 05:50:03;;;;;;;28.35;23.17;;;12.60;99.90;;;;;;5073431;28;20054;-82
2021/10/09 05:52:37;;;;;;;29.13;23.60;;;13.10;99.90;;;;;;5074011;28;20028;-83
2021/10/09 05:55:11;;;;;;;32.00;24.20;;;12.60;99.90;;;;;;5053855;28;20028;-82
2021/10/09 05:57:52;;;;;;;31.58;24.75;;;12.40;99.90;;;;;;5072705;28;20422;-82
2021/10/09 06:59:33;;;;;;;36.30;25.10;;;12.70;99.90;;;;;;5077092;28;20032;-84
2021/10/09 07:01:59;;;;;;;36.95;25.92;;;12.80;99.90;;;;;;5077234;28;20093;-83
2021/10/09 07:04:25;;;;;;;44.33;30.83;;;12.90;99.90;;;;;;5076025;28;20475;-83
2021/10/09 07:06:53;;;;;;;38.38;26.38;;;13.40;99.90;;;;;;5072856;28;20049;-84
2021/10/09 07:09:18;;;;;;;37.80;26.20;;;12.90;99.90;;;;;;5079507;28;20474;-83
2021/10/09 07:11:44;;;;;;;41.90;27.67;;;12.90;99.90;;;;;;5075691;28;20103;-83
2021/10/09 07:14:10;;;;;;;42.30;28.23;;;12.90;99.90;;;;;;5076787;28;20024;-84
2021/10/09 07:16:35;;;;;;;36.90;25.92;;;12.90;99.90;;;;;;5077333;28;20048;-83
2021/10/09 07:19:01;;;;;;;39.85;27.13;;;13.00;99.90;;;;;;5071195;28;20492;-88
2021/10/09 07:21:27;;;;;;;36.42;25.90;;;13.00;99.90;;;;;;5084395;28;20031;-84
2021/10/09 07:23:53;;;;;;;37.63;26.60;;;13.10;99.90;;;;;;5076272;28;20127;-83
2021/10/09 07:26:19;;;;;;;35.80;24.98;;;13.10;99.90;;;;;;5075652;28;20115;-83
2021/10/09 07:28:44;;;;;;;38.00;26.42;;;13.50;99.90;;;;;;5076688;28;20028;-83
2021/10/09 07:31:10;;;;;;;36.78;25.70;;;13.30;99.90;;;;;;5073313;28;20431;-83
2021/10/09 07:33:36;;;;;;;39.20;26.08;;;13.30;99.90;;;;;;5076263;28;20025;-83
2021/10/09 07:36:01;;;;;;;40.47;26.10;;;13.30;99.90;;;;;;5077081;28;20439;-83
2021/10/09 07:38:27;;;;;;;36.95;24.75;;;13.50;99.90;;;;;;5076293;28;20115;-83
2021/10/09 07:40:53;;;;;;;36.13;24.15;;;13.50;99.90;;;;;;5074938;28;20024;-83
2021/10/09 07:43:18;;;;;;;33.75;24.10;;;13.70;99.90;;;;;;5074649;28;20035;-83
2021/10/09 07:45:44;;;;;;;31.60;21.65;;;13.80;99.90;;;;;;5072905;28;20447;-83
2021/10/09 07:48:10;;;;;;;26.45;19.75;;;13.90;99.90;;;;;;5077842;28;20067;-83
2021/10/09 07:50:36;;;;;;;29.30;20.85;;;13.90;99.90;;;;;;5075587;28;20111;-83
2021/10/09 07:53:02;;;;;;;29.63;20.83;;;13.90;99.90;;;;;;5075761;28;20400;-83
2021/10/09 07:55:28;;;;;;;26.33;19.95;;;14.00;99.90;;;;;;5075479;28;20451;-83
2021/10/09 07:57:53;;;;;;;27.05;19.52;;;13.80;99.90;;;;;;5072374;28;20067;-83
2021/10/09 08:00:19;;;;;;;25.73;19.35;;;14.20;99.90;;;;;;5077862;28;20032;-84
2021/10/09 08:02:49;;;;;;;26.30;19.65;;;13.90;99.90;;;;;;5074551;28;20025;-83
2021/10/09 08:05:15;;;;;;;25.92;18.50;;;13.90;99.90;;;;;;5074079;28;20526;-83
2021/10/09 08:07:41;;;;;;;25.55;18.85;;;13.90;99.90;;;;;;5075927;28;20032;-83
2021/10/09 08:10:06;;;;;;;25.10;18.75;;;13.80;99.90;;;;;;5071619;28;20047;-83
2021/10/09 08:12:32;;;;;;;27.17;19.45;;;13.90;99.90;;;;;;5080226;28;20029;-82
2021/10/09 08:14:58;;;;;;;28.63;19.83;;;13.90;99.90;;;;;;5084778;28;20031;-83
2021/10/09 08:17:24;;;;;;;26.45;19.20;;;13.80;99.90;;;;;;5083999;28;20478;-83
2021/10/09 08:19:50;;;;;;;25.90;19.13;;;13.90;99.90;;;;;;5083897;28;20101;-83
2021/10/09 08:22:15;;;;;;;27.27;20.45;;;13.90;99.90;;;;;;5073183;28;20028;-82
2021/10/09 08:40:32;;;;;;;25.63;19.67;;;14.30;99.90;;;;;;5073995;28;20031;-82
2021/10/09 08:42:58;;;;;;;26.23;19.83;;;14.80;99.90;;;;;;5069771;28;20497;-83
2021/10/09 08:45:24;;;;;;;25.48;19.75;;;15.20;99.90;;;;;;5076821;28;20024;-83
2021/10/09 08:47:50;;;;;;;22.63;17.25;;;17.00;99.90;;;;;;5074258;28;20028;-82
2021/10/09 08:50:16;;;;;;;21.50;16.95;;;21.80;99.90;;;;;;5074518;28;20028;-83
2021/10/09 08:53:07;;;;;;;21.63;16.65;;;24.80;99.90;;;;;;5075207;28;20028;-83
2021/10/09 08:55:35;;;;;;;22.55;18.20;;;26.20;99.90;;;;;;5075186;28;20020;-83
2021/10/09 08:58:06;;;;;;;22.27;17.60;;;26.70;99.90;;;;;;5054690;28;20055;-83
2021/10/09 09:01:02;;;;;;;22.15;17.25;;;27.30;99.90;;;;;;5084636;28;20027;-82
2021/10/09 09:37:09;;;;;;;20.63;18.20;;;22.50;99.90;;;;;;4970342;28;20473;-84
2021/10/09 09:39:39;;;;;;;18.95;16.92;;;22.60;99.90;;;;;;4966214;28;20023;-84
2021/10/09 09:42:05;;;;;;;23.33;18.02;;;22.90;99.90;;;;;;4970592;28;20092;-83
2021/10/09 09:44:31;;;;;;;20.73;18.17;;;24.10;99.90;;;;;;4971201;28;20117;-83
2021/10/09 09:47:07;;;;;;;21.38;19.13;;;26.20;99.90;;;;;;4969633;28;20529;-83
2021/10/09 09:49:33;;;;;;;23.35;20.45;;;23.80;99.90;;;;;;4970452;28;20530;-84
2021/10/09 09:52:00;;;;;;;22.98;19.92;;;25.30;99.90;;;;;;4970194;28;20058;-83
2021/10/09 09:54:28;;;;;;;22.90;19.17;;;28.40;99.90;;;;;;4971023;28;20103;-83
2021/10/09 09:56:58;;;;;;;21.88;19.10;;;25.30;99.90;;;;;;4970004;28;20034;-83
2021/10/09 09:59:33;;;;;;;21.13;18.00;;;24.60;99.90;;;;;;4969475;28;20146;-84
2021/10/09 10:02:04;;;;;;;20.55;18.15;;;29.30;99.90;;;;;;4969601;28;20043;-83
2021/10/09 10:04:32;;;;;;;19.27;17.20;;;30.70;99.90;;;;;;4970920;28;20023;-83
2021/10/09 10:07:00;;;;;;;21.77;19.02;;;31.90;99.90;;;;;;4971469;28;20097;-84
2021/10/09 10:09:28;;;;;;;20.00;17.83;;;29.20;99.90;;;;;;5069061;28;20519;-86
2021/10/09 10:11:56;;;;;;;20.38;18.15;;;25.20;99.90;;;;;;5069026;28;20565;-87
2021/10/09 10:14:27;;;;;;;19.50;17.50;;;25.30;99.90;;;;;;5068885;28;20017;-84
2021/10/09 10:16:54;;;;;;;18.58;16.58;;;27.40;99.90;;;;;;5069869;28;20028;-86
2021/10/09 10:19:19;;;;;;;18.25;16.45;;;28.80;99.90;;;;;;5076249;28;20051;-90
2021/10/09 10:21:47;;;;;;;18.25;16.30;;;31.50;99.90;;;;;;5070828;28;20028;-88
2021/10/09 10:24:42;;;;;;;18.30;16.50;;;32.10;99.90;;;;;;5078316;28;20032;-87
2021/10/09 10:27:30;;;;;;;19.52;17.50;;;28.90;99.90;;;;;;5075263;28;20036;-88
2021/10/09 10:30:20;;;;;;;18.50;16.52;;;26.40;99.90;;;;;;5074246;28;20036;-86
2021/10/09 10:32:47;;;;;;;17.52;15.73;;;25.30;99.90;;;;;;5067467;28;20098;-86
2021/10/09 10:35:33;;;;;;;18.30;16.45;;;24.60;99.90;;;;;;5073717;28;20489;-90
2021/10/09 10:38:05;;;;;;;19.65;16.42;;;23.70;99.90;;;;;;5072771;28;20119;-91
2021/10/09 10:40:51;;;;;;;16.85;15.05;;;23.30;99.90;;;;;;5072829;28;20496;-86
2021/10/09 10:46:34;;;;;;;17.98;16.08;;;23.90;99.90;;;;;;5060103;28;20102;-83
2021/10/09 10:49:36;;;;;;;18.60;16.63;;;23.90;99.90;;;;;;5064904;28;20079;-83
2021/10/09 10:57:04;;;;;;;18.65;16.65;;;27.30;99.90;;;;;;5075790;28;20358;-86
2021/10/09 10:59:52;;;;;;;18.48;15.85;;;25.80;99.90;;;;;;5073264;28;20060;-84
2021/10/09 11:02:29;;;;;;;17.45;15.48;;;25.00;99.90;;;;;;5074952;28;20020;-84
2021/10/09 11:04:56;;;;;;;18.48;16.02;;;24.40;99.90;;;;;;5074004;28;20519;-85
2021/10/09 11:07:31;;;;;;;18.00;15.70;;;23.80;99.90;;;;;;5074350;28;20089;-83
2021/10/09 11:10:18;;;;;;;17.35;15.40;;;24.20;99.90;;;;;;5072909;28;20033;-85
2021/10/09 11:12:47;;;;;;;17.90;16.10;;;25.00;99.90;;;;;;5072186;28;20025;-85
2021/10/09 11:15:25;;;;;;;18.27;16.38;;;24.50;99.90;;;;;;5074686;28;20020;-84
2021/10/09 11:17:58;;;;;;;19.15;16.65;;;24.30;99.90;;;;;;5074299;28;20582;-87
2021/10/09 11:20:30;;;;;;;19.13;17.10;;;24.40;99.90;;;;;;5073381;28;20028;-87
2021/10/09 11:23:00;;;;;;;17.90;16.10;;;23.80;99.90;;;;;;5070968;28;20041;-85
2021/10/09 11:25:35;;;;;;;19.33;17.25;;;23.60;99.90;;;;;;5071448;28;20396;-87
2021/10/09 11:28:04;;;;;;;18.48;16.45;;;22.40;99.90;;;;;;5069440;28;20033;-86
2021/10/09 11:30:31;;;;;;;17.83;16.02;;;22.30;99.90;;;;;;5072932;28;20021;-82
2021/10/09 11:32:57;;;;;;;19.58;17.58;;;21.90;99.90;;;;;;5104696;27;20051;-81
2021/10/09 11:35:36;;;;;;;19.85;16.80;;;22.10;99.90;;;;;;5071062;28;20019;-81
2021/10/09 11:38:30;;;;;;;19.67;16.10;;;21.90;99.90;;;;;;5069895;28;20088;-81
2021/10/09 11:41:00;;;;;;;16.90;15.18;;;22.90;99.90;;;;;;5065225;28;20079;-84
2021/10/09 11:54:26;;;;;;;18.35;16.02;;;22.10;99.90;;;;;;5071430;28;20101;-85
2021/10/09 11:56:52;;;;;;;19.83;17.30;;;21.60;99.90;;;;;;5070564;28;20032;-85
2021/10/09 11:59:40;;;;;;;20.02;16.38;;;21.60;99.90;;;;;;5071831;28;20401;-82
2021/10/09 12:02:06;;;;;;;20.52;17.75;;;22.00;99.90;;;;;;5071457;28;20086;-93
2021/10/09 12:04:32;;;;;;;19.95;17.30;;;21.20;99.90;;;;;;5069714;28;20021;-84
2021/10/09 12:07:09;;;;;;;21.00;17.38;;;20.40;99.90;;;;;;5068084;28;20127;-84
2021/10/09 12:09:40;;;;;;;20.02;16.17;;;20.20;99.90;;;;;;5069657;28;20104;-85
2021/10/09 12:12:19;;;;;;;20.20;16.63;;;20.40;99.90;;;;;;5071638;28;20036;-83
2021/10/09 12:14:45;;;;;;;19.67;16.77;;;21.10;99.90;;;;;;5069600;28;20028;-83
2021/10/09 12:17:13;;;;;;;19.50;16.65;;;22.60;99.90;;;;;;5104479;27;20032;-87
2021/10/09 12:19:39;;;;;;;20.25;16.38;;;22.80;99.90;;;;;;5072114;28;20047;-88
2021/10/09 12:22:07;;;;;;;19.98;16.30;;;22.80;99.90;;;;;;5072698;28;20052;-91
2021/10/09 12:24:49;;;;;;;18.83;16.38;;;22.80;99.90;;;;;;5074887;28;20020;-96
2021/10/09 12:27:16;;;;;;;17.85;15.95;;;22.90;99.90;;;;;;5085617;28;20036;-96
2021/10/09 12:30:16;;;;;;;20.35;16.13;;;23.80;99.90;;;;;;5077518;28;20096;-94
2021/10/09 12:32:50;;;;;;;18.45;16.33;;;25.10;99.90;;;;;;4996301;28;20039;-96
2021/10/09 12:35:27;;;;;;;17.60;15.80;;;24.10;99.90;;;;;;5003313;28;20552;-90
2021/10/09 12:38:09;;;;;;;19.88;15.50;;;23.20;99.90;;;;;;4995279;28;20030;-87
2021/10/09 12:40:49;;;;;;;17.75;15.82;;;25.00;99.90;;;;;;4989582;28;20733;-87
2021/10/09 12:43:19;;;;;;;18.38;14.93;;;26.80;99.90;;;;;;4992311;28;20034;-88
2021/10/09 12:45:45;;;;;;;17.92;15.30;;;24.20;99.90;;;;;;4991343;28;20030;-82
2021/10/09 12:48:11;;;;;;;17.13;14.65;;;22.50;99.90;;;;;;4992525;28;20073;-84
2021/10/09 12:50:39;;;;;;;18.08;15.20;;;21.20;99.90;;;;;;4991725;28;20049;-85
2021/10/09 12:53:05;;;;;;;18.25;16.30;;;21.20;99.90;;;;;;4991359;28;20040;-83
2021/10/09 12:55:35;;;;;;;18.23;15.05;;;20.80;99.90;;;;;;4988805;28;20124;-81
2021/10/09 12:58:04;;;;;;;16.85;14.98;;;20.60;99.90;;;;;;4987917;28;20795;-83
2021/10/09 13:00:31;;;;;;;16.83;15.02;;;21.10;99.90;;;;;;4988789;28;20034;-83
2021/10/09 13:02:57;;;;;;;18.05;15.65;;;21.60;99.90;;;;;;4989373;28;20400;-84
2021/10/09 13:05:25;;;;;;;16.55;14.60;;;21.20;99.90;;;;;;4989746;28;20018;-85
2021/10/09 13:07:51;;;;;;;19.30;14.93;;;23.90;99.90;;;;;;5013915;28;20045;-85
2021/10/09 13:10:19;;;;;;;17.10;14.43;;;23.20;99.90;;;;;;5069130;28;20017;-84
2021/10/09 13:12:45;;;;;;;17.00;13.63;;;25.10;99.90;;;;;;5069839;28;20029;-85
2021/10/09 13:15:11;;;;;;;15.60;13.30;;;24.20;99.90;;;;;;5069208;28;20039;-84
2021/10/09 13:17:37;;;;;;;15.55;14.05;;;26.80;99.90;;;;;;5069690;28;20029;-84
2021/10/09 13:20:05;;;;;;;15.48;13.23;;;27.20;99.90;;;;;;5074605;28;20041;-86
2021/10/09 13:22:31;;;;;;;14.38;12.85;;;27.80;99.90;;;;;;5083765;28;20503;-84
2021/10/09 13:24:56;;;;;;;14.65;13.15;;;27.60;99.90;;;;;;5069885;28;20024;-88
2021/10/09 13:27:22;;;;;;;15.60;14.00;;;27.10;99.90;;;;;;5075633;28;20036;-83
2021/10/09 13:29:47;;;;;;;16.58;14.88;;;24.60;99.90;;;;;;5074467;28;20815;-83
2021/10/09 13:32:13;;;;;;;16.80;15.10;;;23.90;99.90;;;;;;5074386;28;20074;-83
2021/10/09 13:34:38;;;;;;;16.08;14.40;;;23.00;99.90;;;;;;5073965;28;20395;-85
2021/10/09 13:37:05;;;;;;;17.33;15.60;;;24.50;99.90;;;;;;5068503;28;20024;-84
2021/10/09 13:39:30;;;;;;;16.60;14.90;;;23.80;99.90;;;;;;5075520;28;20037;-83
2021/10/09 13:41:56;;;;;;;15.98;14.27;;;22.60;99.90;;;;;;5074111;28;20024;-83
2021/10/09 13:44:22;;;;;;;16.40;14.70;;;22.00;99.90;;;;;;5073915;28;20032;-83
2021/10/09 13:46:47;;;;;;;15.90;14.30;;;23.50;99.90;;;;;;5074279;28;20055;-83
2021/10/09 13:49:13;;;;;;;16.20;14.50;;;23.90;99.90;;;;;;5071292;28;20025;-83
2021/10/09 13:51:39;;;;;;;15.80;13.88;;;23.10;99.90;;;;;;5073228;28;20435;-83
2021/10/09 13:54:05;;;;;;;17.17;15.40;;;22.40;99.90;;;;;;5073263;28;20035;-83
2021/10/09 13:56:31;;;;;;;17.83;15.68;;;21.70;99.90;;;;;;5072908;28;20115;-83
2021/10/09 13:58:57;;;;;;;15.73;14.13;;;21.30;99.90;;;;;;5074019;28;20048;-83
2021/10/09 14:01:23;;;;;;;16.17;14.35;;;23.10;99.90;;;;;;5072365;28;20028;-83
2021/10/09 14:03:49;;;;;;;15.77;14.18;;;22.90;99.90;;;;;;5070959;28;20055;-83
2021/10/09 14:06:14;;;;;;;16.17;14.40;;;22.80;99.90;;;;;;5075313;28;20060;-83
2021/10/09 14:08:40;;;;;;;16.65;14.77;;;21.70;99.90;;;;;;5073588;28;20550;-83
2021/10/09 14:11:06;;;;;;;15.77;13.95;;;20.80;99.90;;;;;;5073846;28;20032;-83
2021/10/09 14:13:31;;;;;;;15.48;13.88;;;20.60;99.90;;;;;;5073437;28;20072;-83
2021/10/09 14:15:57;;;;;;;14.23;12.75;;;20.50;99.90;;;;;;5069007;28;20737;-83
2021/10/09 14:18:23;;;;;;;17.52;15.73;;;21.10;99.90;;;;;;5075765;28;20028;-83
2021/10/09 14:20:51;;;;;;;15.35;13.80;;;21.40;99.90;;;;;;5073083;28;20067;-83
2021/10/09 14:23:17;;;;;;;16.48;14.05;;;21.10;99.90;;;;;;5073818;28;20409;-83
2021/10/09 14:25:44;;;;;;;15.88;14.27;;;20.80;99.90;;;;;;5073728;28;20119;-83
2021/10/09 14:28:10;;;;;;;17.40;14.55;;;21.80;99.90;;;;;;5074240;28;20024;-83
2021/10/09 14:30:38;;;;;;;16.48;13.77;;;22.50;99.90;;;;;;5077654;28;20029;-83
2021/10/09 14:33:04;;;;;;;16.23;14.52;;;21.70;99.90;;;;;;5078642;28;20021;-83
2021/10/09 14:35:29;;;;;;;16.48;14.85;;;22.10;99.90;;;;;;5075977;28;20031;-83
2021/10/09 14:37:55;;;;;;;17.23;13.70;;;22.00;99.90;;;;;;5077164;28;20497;-82
2021/10/09 14:40:21;;;;;;;15.45;13.93;;;22.40;99.90;;;;;;5076208;28;20463;-83
2021/10/09 14:42:47;;;;;;;15.98;14.02;;;22.80;99.90;;;;;;5074763;28;20103;-83
2021/10/09 14:45:15;;;;;;;14.65;13.10;;;23.10;99.90;;;;;;5079305;28;20361;-83
2021/10/09 14:47:54;;;;;;;15.00;13.50;;;23.10;99.90;;;;;;5077197;28;20451;-83
2021/10/09 15:19:40;;;;;;;16.52;14.80;;;22.00;99.90;;;;;;5076244;28;20032;-83
2021/10/09 15:22:06;;;;;;;15.73;14.02;;;22.10;99.90;;;;;;5071677;28;20060;-83
2021/10/09 15:24:32;;;;;;;17.60;14.70;;;21.40;99.90;;;;;;5077695;28;20103;-83
2021/10/09 15:26:58;;;;;;;16.33;14.63;;;20.80;99.90;;;;;;5076869;28;20119;-83
2021/10/09 15:29:23;;;;;;;16.38;14.63;;;20.40;99.90;;;;;;5076619;28;20583;-83